Dryden, Dryden Regional Airport (CYHD)

NameDryden Regional Airport
CityDryden
CountryCanada
ICAOCYHD
IATAYHD
Altitude413 m
CoordinatesGoogle Map
Live Air TrafficLiveATC.net
METARCYHD 280100Z AUTO 30003KT 7SM -SN OVC019 M10/M11 A3007 RMK SLP218
2020-01-28 01:00:00 Wind: West-Northwest (300°) 1.54 m/s - Visibility: 11265.38 m - Weather: Light Snow - Temperature: -10 °C - Dew point: -11 °C - Humidity: 92.5% - Pressure: 1018.29 hPa
Statistics

The table below shows the detailed information of all flights to/from Dryden, Dryden Regional Airport (CYHD).